Terminal Aerodrome Forecast
Issued by NWS Wilmington, OH

Home | Current Version | Previous Version | Text Only | Print | Product List | Glossary On
Versions: 1 2 3 4 5 6 7 8 9 10 11 12 13 14 15 16 17 18 19 20 21 22 23 24 25 26 27 28 29 30 31 32 33 34 35 36 37 38 39 40 41 42
000
FTUS41 KILN 211745
TAFDAY
TAF
KDAY 211745Z 2118/2218 34009KT P6SM VCSH SCT008 OVC015
     FM220000 32010KT P6SM BKN025
     FM220900 29012G20KT P6SM VCSH BKN025
     FM221600 32020G28KT P6SM BKN035=

USA.gov is the U.S. government's official web portal to all federal, state and local government web resources and services.